Time;durP1;ratioP1;P1;durP2;ratioP2;P2;SDS_P1;SDS_P2;PMS_P1;PMS_P2;Temp;Humidity;BMP_temperature;BMP_pressure;BME280_temperature;BME280_humidity;BME280_pressure;Samples;Min_cycle;Max_cycle;Signal;HPM_P1;HPM_P2
2021/07/30 00:01:40;;;;;;;10.85;6.32;;;16.10;99.90;;;;;;5050605;28;20538;-39
2021/07/30 00:04:06;;;;;;;6.50;5.60;;;16.00;99.90;;;;;;5051085;28;20029;-42
2021/07/30 00:06:31;;;;;;;7.13;4.90;;;16.00;99.90;;;;;;5050272;28;20032;-40
2021/07/30 00:09:00;;;;;;;9.68;5.78;;;15.90;99.90;;;;;;5051327;28;20032;-42
2021/07/30 00:11:32;;;;;;;8.75;5.45;;;15.90;99.90;;;;;;5050488;28;20094;-42
2021/07/30 00:13:57;;;;;;;8.02;5.70;;;15.90;99.90;;;;;;5049440;28;20381;-44
2021/07/30 00:16:43;;;;;;;8.40;6.53;;;15.90;99.90;;;;;;5050807;28;20021;-41
2021/07/30 00:19:08;;;;;;;10.10;5.93;;;15.80;99.90;;;;;;5049663;28;20119;-41
2021/07/30 00:21:34;;;;;;;7.65;5.28;;;15.80;99.90;;;;;;5051344;28;20151;-42
2021/07/30 00:23:59;;;;;;;8.13;5.38;;;15.80;99.90;;;;;;5050833;28;20020;-42
2021/07/30 00:26:25;;;;;;;8.15;5.60;;;15.70;99.90;;;;;;5050066;28;20096;-42
2021/07/30 00:28:50;;;;;;;11.13;5.50;;;15.70;99.90;;;;;;5050930;28;20100;-42
2021/07/30 00:31:19;;;;;;;8.00;5.85;;;15.70;99.90;;;;;;5051024;28;20122;-42
2021/07/30 00:33:48;;;;;;;8.30;6.15;;;15.70;99.90;;;;;;5049509;28;20398;-39
2021/07/30 00:36:16;;;;;;;9.77;5.65;;;15.70;99.90;;;;;;5050814;28;20543;-42
2021/07/30 00:38:42;;;;;;;9.68;5.28;;;15.70;99.90;;;;;;5049652;28;20032;-41
2021/07/30 00:41:10;;;;;;;10.82;6.00;;;15.60;99.90;;;;;;5050398;28;20037;-42
2021/07/30 00:43:35;;;;;;;9.40;6.10;;;15.60;99.90;;;;;;5049254;28;20021;-41
2021/07/30 00:46:01;;;;;;;8.73;6.25;;;15.70;99.90;;;;;;5049342;28;20037;-41
2021/07/30 00:48:31;;;;;;;6.50;5.82;;;15.60;99.90;;;;;;5049435;28;20059;-42
2021/07/30 00:50:57;;;;;;;8.38;5.82;;;15.60;99.90;;;;;;5050612;28;20044;-40
2021/07/30 00:53:24;;;;;;;9.20;6.10;;;15.60;99.90;;;;;;5049226;28;20025;-42
2021/07/30 00:55:50;;;;;;;8.00;6.20;;;15.60;99.90;;;;;;5050928;28;20036;-42
2021/07/30 00:58:16;;;;;;;7.32;5.18;;;15.60;99.90;;;;;;5049781;28;20029;-42
2021/07/30 01:00:41;;;;;;;8.68;6.80;;;15.60;99.90;;;;;;5048620;28;20431;-42
2021/07/30 01:03:08;;;;;;;10.05;6.30;;;15.50;99.90;;;;;;5049650;28;20025;-42
2021/07/30 01:05:37;;;;;;;7.28;6.05;;;15.50;99.90;;;;;;5050005;28;20035;-42
2021/07/30 01:08:04;;;;;;;9.55;6.00;;;15.50;99.90;;;;;;5050086;28;20024;-41
2021/07/30 01:10:30;;;;;;;8.32;6.03;;;15.50;99.90;;;;;;5047800;28;20082;-39
2021/07/30 01:12:56;;;;;;;9.82;6.10;;;15.40;99.90;;;;;;5050307;28;20105;-42
2021/07/30 01:15:29;;;;;;;7.07;5.75;;;15.50;99.90;;;;;;5048436;28;20087;-42
2021/07/30 01:17:54;;;;;;;8.30;6.35;;;15.40;99.90;;;;;;5050662;28;20029;-43
2021/07/30 01:20:24;;;;;;;9.77;6.63;;;15.40;99.90;;;;;;5049686;28;20024;-43
2021/07/30 01:22:54;;;;;;;9.95;6.47;;;15.40;99.90;;;;;;5049254;28;20021;-43
2021/07/30 01:25:20;;;;;;;9.10;5.82;;;15.30;99.90;;;;;;5050049;28;20071;-42
2021/07/30 01:27:46;;;;;;;8.13;5.88;;;15.30;99.90;;;;;;5048906;28;20567;-41
2021/07/30 01:30:13;;;;;;;10.45;6.28;;;15.30;99.90;;;;;;5049068;28;20017;-43
2021/07/30 01:32:42;;;;;;;9.43;5.97;;;15.30;99.90;;;;;;5049381;28;20068;-42
2021/07/30 01:35:11;;;;;;;10.35;5.95;;;15.30;99.90;;;;;;5048815;28;20048;-43
2021/07/30 01:37:40;;;;;;;9.20;6.28;;;15.30;99.90;;;;;;5048967;28;20028;-42
2021/07/30 01:40:06;;;;;;;9.20;6.60;;;15.30;99.90;;;;;;5049791;28;20357;-42
2021/07/30 01:42:32;;;;;;;8.73;6.10;;;15.30;99.90;;;;;;5048012;28;20522;-42
2021/07/30 01:44:58;;;;;;;7.55;5.68;;;15.20;99.90;;;;;;5049276;28;20009;-42
2021/07/30 01:47:24;;;;;;;8.30;6.05;;;15.20;99.90;;;;;;5049400;28;20116;-43
2021/07/30 01:49:50;;;;;;;9.43;6.50;;;15.20;99.90;;;;;;5048616;28;20116;-41
2021/07/30 01:52:20;;;;;;;8.65;6.20;;;15.10;99.90;;;;;;5049442;28;20052;-42
2021/07/30 01:54:46;;;;;;;8.20;6.43;;;15.10;99.90;;;;;;5048972;28;20120;-42
2021/07/30 01:57:11;;;;;;;8.82;6.22;;;15.10;99.90;;;;;;5048992;28;20025;-42
2021/07/30 01:59:40;;;;;;;7.78;6.82;;;15.10;99.90;;;;;;5048585;28;20476;-41
2021/07/30 02:02:06;;;;;;;12.35;6.30;;;15.00;99.90;;;;;;5049163;28;20419;-42
2021/07/30 02:04:31;;;;;;;8.43;6.63;;;15.00;99.90;;;;;;5028743;28;20025;-42
2021/07/30 02:06:57;;;;;;;12.18;6.65;;;15.00;99.90;;;;;;5043285;28;20033;-43
2021/07/30 02:09:22;;;;;;;9.82;6.43;;;15.00;99.90;;;;;;5048707;28;20021;-42
2021/07/30 02:11:51;;;;;;;8.68;6.50;;;15.00;99.90;;;;;;5048067;28;20477;-43
2021/07/30 02:14:23;;;;;;;9.57;6.65;;;14.90;99.90;;;;;;5048819;28;20056;-42
2021/07/30 02:16:51;;;;;;;10.30;6.78;;;15.00;99.90;;;;;;5048608;28;20132;-42
2021/07/30 02:19:18;;;;;;;9.93;6.88;;;14.90;99.90;;;;;;5048750;28;20021;-42
2021/07/30 02:21:45;;;;;;;9.23;7.03;;;14.90;99.90;;;;;;5048093;28;20009;-42
2021/07/30 02:24:11;;;;;;;10.65;6.85;;;14.90;99.90;;;;;;5048814;28;20089;-41
2021/07/30 02:26:37;;;;;;;7.97;6.32;;;14.90;99.90;;;;;;5047867;28;20021;-42
2021/07/30 02:29:04;;;;;;;7.22;6.47;;;14.90;99.90;;;;;;5048747;28;20032;-42
2021/07/30 02:31:29;;;;;;;7.97;5.90;;;14.90;99.90;;;;;;5047718;28;20484;-42
2021/07/30 02:33:55;;;;;;;10.07;6.55;;;14.90;99.90;;;;;;5048936;28;20072;-42
2021/07/30 02:36:21;;;;;;;8.55;6.82;;;14.80;99.90;;;;;;5048491;28;20021;-41
2021/07/30 02:38:46;;;;;;;9.48;6.55;;;14.80;99.90;;;;;;5046497;28;20032;-41
2021/07/30 02:41:12;;;;;;;10.90;6.55;;;14.80;99.90;;;;;;5048898;28;20495;-40
2021/07/30 02:43:39;;;;;;;12.02;7.72;;;14.80;99.90;;;;;;5047983;28;20517;-42
2021/07/30 02:46:04;;;;;;;9.30;6.28;;;14.70;99.90;;;;;;5047442;28;20496;-42
2021/07/30 02:48:30;;;;;;;8.60;6.80;;;14.70;99.90;;;;;;5048752;28;20056;-42
2021/07/30 02:50:55;;;;;;;8.98;6.50;;;14.80;99.90;;;;;;5048745;28;20078;-42
2021/07/30 02:53:21;;;;;;;10.60;6.72;;;14.70;99.90;;;;;;5047153;28;20143;-42
2021/07/30 02:55:46;;;;;;;8.80;6.63;;;14.70;99.90;;;;;;5049351;28;20021;-41
2021/07/30 02:58:13;;;;;;;9.80;6.78;;;14.70;99.90;;;;;;5048593;28;20013;-42
2021/07/30 03:00:39;;;;;;;7.63;6.13;;;14.70;99.90;;;;;;5048155;28;20031;-42
2021/07/30 03:03:04;;;;;;;9.35;6.00;;;14.60;99.90;;;;;;5048581;28;20228;-42
2021/07/30 03:05:30;;;;;;;11.82;6.90;;;14.60;99.90;;;;;;5047297;28;20052;-42
2021/07/30 03:07:55;;;;;;;7.68;6.88;;;14.60;99.90;;;;;;5047809;28;20488;-42
2021/07/30 03:10:21;;;;;;;8.20;6.80;;;14.60;99.90;;;;;;5048398;28;20135;-41
2021/07/30 03:12:46;;;;;;;10.85;6.72;;;14.60;99.90;;;;;;5048406;28;20024;-41
2021/07/30 03:15:15;;;;;;;9.82;6.93;;;14.60;99.90;;;;;;5047924;28;20108;-41
2021/07/30 03:17:41;;;;;;;9.35;6.68;;;14.50;99.90;;;;;;5047807;28;20029;-42
2021/07/30 03:20:07;;;;;;;10.57;6.60;;;14.60;99.90;;;;;;5047406;28;20131;-39
2021/07/30 03:22:33;;;;;;;8.90;6.53;;;14.50;99.90;;;;;;5050897;28;20023;-42
2021/07/30 03:24:58;;;;;;;11.52;7.28;;;14.50;99.90;;;;;;5051998;28;20036;-42
2021/07/30 03:27:24;;;;;;;9.65;6.72;;;14.50;99.90;;;;;;5052073;28;20191;-42
2021/07/30 03:29:50;;;;;;;9.82;7.10;;;14.50;99.90;;;;;;5050932;28;20025;-41
2021/07/30 03:32:16;;;;;;;10.07;7.30;;;14.50;99.90;;;;;;5052206;28;20048;-42
2021/07/30 03:34:41;;;;;;;11.30;7.22;;;14.40;99.90;;;;;;5051027;28;20559;-41
2021/07/30 03:37:07;;;;;;;12.05;7.10;;;14.40;99.90;;;;;;5051492;28;20169;-43
2021/07/30 03:39:33;;;;;;;10.40;7.10;;;14.40;99.90;;;;;;5051756;28;20630;-42
2021/07/30 03:41:58;;;;;;;8.98;6.55;;;14.40;99.90;;;;;;5050909;28;20163;-42
2021/07/30 03:44:24;;;;;;;9.25;7.15;;;14.40;99.90;;;;;;5051124;28;20036;-41
2021/07/30 03:46:49;;;;;;;9.15;6.60;;;14.30;99.90;;;;;;5051340;28;20048;-42
2021/07/30 03:49:15;;;;;;;12.23;6.53;;;14.40;99.90;;;;;;5051140;28;20564;-43
2021/07/30 03:51:41;;;;;;;8.75;6.90;;;14.40;99.90;;;;;;5051043;28;20223;-42
2021/07/30 03:54:10;;;;;;;9.73;6.78;;;14.30;99.90;;;;;;5051350;28;20033;-43
2021/07/30 03:56:39;;;;;;;9.52;6.15;;;14.30;99.90;;;;;;5049474;28;20045;-41
2021/07/30 03:59:05;;;;;;;9.43;6.75;;;14.30;99.90;;;;;;5051036;28;20519;-41
2021/07/30 04:01:30;;;;;;;8.45;6.43;;;14.40;99.90;;;;;;5051184;28;20056;-43
2021/07/30 04:03:56;;;;;;;8.23;6.57;;;14.30;99.90;;;;;;5050655;28;20025;-42
2021/07/30 04:06:21;;;;;;;8.25;6.20;;;14.40;99.90;;;;;;5049576;28;20032;-42
2021/07/30 04:08:49;;;;;;;8.45;7.00;;;14.40;99.90;;;;;;5051604;28;20100;-42
2021/07/30 04:11:14;;;;;;;9.68;6.82;;;14.40;99.90;;;;;;5050999;28;20025;-43
2021/07/30 04:13:40;;;;;;;9.73;6.63;;;14.40;99.90;;;;;;5050605;28;20021;-42
2021/07/30 04:16:07;;;;;;;8.50;6.90;;;14.50;99.90;;;;;;5050844;28;20017;-42
2021/07/30 04:18:33;;;;;;;10.75;6.80;;;14.50;99.90;;;;;;5051038;28;20021;-42
2021/07/30 04:20:59;;;;;;;9.20;7.25;;;14.50;99.90;;;;;;5051287;28;20056;-42
2021/07/30 04:23:27;;;;;;;10.35;7.03;;;14.60;99.90;;;;;;5050860;28;20483;-42
2021/07/30 04:25:53;;;;;;;9.27;6.60;;;14.60;99.90;;;;;;5050546;28;20025;-42
2021/07/30 04:28:18;;;;;;;7.57;5.93;;;14.60;99.90;;;;;;5051009;28;20021;-41
2021/07/30 04:30:47;;;;;;;9.07;6.43;;;14.70;99.90;;;;;;5050474;28;20483;-42
2021/07/30 04:33:12;;;;;;;10.68;6.50;;;14.70;99.90;;;;;;5039477;28;20029;-43
2021/07/30 04:35:38;;;;;;;8.38;6.00;;;14.70;99.90;;;;;;5049677;28;20406;-42
2021/07/30 04:38:04;;;;;;;9.55;6.72;;;14.70;99.90;;;;;;5049711;28;20013;-43
2021/07/30 04:40:30;;;;;;;8.85;6.97;;;14.80;99.90;;;;;;5050716;28;20563;-42
2021/07/30 04:42:56;;;;;;;9.27;6.70;;;14.80;99.90;;;;;;5050170;28;20025;-42
2021/07/30 04:45:22;;;;;;;9.07;6.72;;;14.80;99.90;;;;;;5050349;28;20021;-42
2021/07/30 04:47:47;;;;;;;8.73;6.32;;;14.80;99.90;;;;;;5050299;28;20025;-42
2021/07/30 04:50:13;;;;;;;8.48;6.70;;;14.90;99.90;;;;;;5050488;28;20025;-42
2021/07/30 04:52:41;;;;;;;9.80;6.32;;;14.90;99.90;;;;;;5049650;28;20566;-42
2021/07/30 04:55:11;;;;;;;7.72;6.43;;;14.90;99.90;;;;;;5050240;28;20032;-43
2021/07/30 04:57:39;;;;;;;8.60;6.05;;;15.00;99.90;;;;;;5049949;28;20028;-43
2021/07/30 05:00:05;;;;;;;8.70;6.40;;;15.00;99.90;;;;;;5050284;28;20068;-42
2021/07/30 05:02:31;;;;;;;5.93;5.32;;;15.00;99.90;;;;;;5049360;28;20104;-42
2021/07/30 05:04:56;;;;;;;8.43;5.25;;;15.00;99.90;;;;;;5049971;28;20108;-43
2021/07/30 05:07:24;;;;;;;8.32;5.18;;;15.10;99.90;;;;;;5048919;28;20024;-42
2021/07/30 05:09:50;;;;;;;9.10;5.78;;;15.10;99.90;;;;;;5050730;28;20057;-42
2021/07/30 05:12:16;;;;;;;10.07;5.47;;;15.10;99.90;;;;;;5050372;28;20060;-43
2021/07/30 05:14:42;;;;;;;9.50;5.90;;;15.10;99.90;;;;;;5049514;28;20036;-43
2021/07/30 05:17:08;;;;;;;7.70;5.57;;;15.20;99.90;;;;;;5049138;28;20083;-43
2021/07/30 05:19:36;;;;;;;9.32;6.03;;;15.20;99.90;;;;;;5049337;28;20048;-41
2021/07/30 05:22:02;;;;;;;7.07;5.88;;;15.20;99.90;;;;;;5049680;28;20021;-43
2021/07/30 05:24:27;;;;;;;8.60;5.72;;;15.30;99.90;;;;;;5049301;28;20009;-43
2021/07/30 05:26:53;;;;;;;8.30;5.57;;;15.30;99.90;;;;;;5049713;28;20374;-43
2021/07/30 05:29:19;;;;;;;9.25;6.05;;;15.30;99.90;;;;;;5049105;28;20029;-41
2021/07/30 05:31:44;;;;;;;9.18;6.03;;;15.30;99.90;;;;;;5049223;28;20491;-42
2021/07/30 05:34:10;;;;;;;9.55;6.32;;;15.40;99.90;;;;;;5049221;28;20049;-42
2021/07/30 05:36:42;;;;;;;9.10;5.65;;;15.40;99.90;;;;;;5049202;28;20032;-42
2021/07/30 05:39:07;;;;;;;11.20;5.88;;;15.50;99.90;;;;;;5049628;28;20028;-43
2021/07/30 05:41:36;;;;;;;9.05;5.85;;;15.50;99.90;;;;;;5047635;28;20066;-42
2021/07/30 05:44:05;;;;;;;8.90;5.75;;;15.60;99.90;;;;;;5048117;28;20017;-41
2021/07/30 05:46:30;;;;;;;8.93;5.47;;;15.70;99.90;;;;;;5049421;28;20403;-42
2021/07/30 05:48:59;;;;;;;7.25;6.10;;;15.80;99.90;;;;;;5048513;28;20036;-41
2021/07/30 05:51:25;;;;;;;8.80;6.18;;;15.90;99.90;;;;;;5048661;28;20048;-42
2021/07/30 05:53:51;;;;;;;7.68;5.85;;;15.90;99.90;;;;;;5049554;28;20033;-42
2021/07/30 05:56:16;;;;;;;10.40;6.72;;;16.00;99.90;;;;;;5048261;28;20025;-42
2021/07/30 05:58:42;;;;;;;8.10;5.95;;;16.10;99.90;;;;;;5048658;28;20024;-42
2021/07/30 06:01:12;;;;;;;8.65;5.72;;;16.20;99.90;;;;;;5049623;28;20025;-42
2021/07/30 06:03:38;;;;;;;11.02;6.55;;;16.30;99.90;;;;;;5047672;28;20017;-43
2021/07/30 06:06:03;;;;;;;8.50;6.47;;;16.40;99.90;;;;;;5048921;28;20625;-42
2021/07/30 06:08:29;;;;;;;7.85;5.80;;;16.40;99.90;;;;;;5048121;28;20726;-43
2021/07/30 06:10:54;;;;;;;9.60;6.20;;;16.50;99.90;;;;;;5047958;28;20504;-42
2021/07/30 06:13:19;;;;;;;8.10;5.70;;;16.60;99.90;;;;;;5048713;28;20111;-43
2021/07/30 06:15:45;;;;;;;7.95;5.38;;;16.80;99.90;;;;;;5048477;28;20040;-42
2021/07/30 06:18:11;;;;;;;9.07;6.75;;;16.90;99.90;;;;;;5048286;28;20039;-43
2021/07/30 06:20:36;;;;;;;8.57;6.10;;;16.90;99.90;;;;;;5048128;28;20060;-43
2021/07/30 06:23:02;;;;;;;10.30;6.10;;;17.00;99.90;;;;;;5048902;28;20540;-42
2021/07/30 06:25:27;;;;;;;11.23;6.28;;;17.00;99.90;;;;;;5047532;28;20017;-43
2021/07/30 06:27:53;;;;;;;12.13;6.43;;;17.10;99.90;;;;;;5049181;28;20475;-42
2021/07/30 06:30:18;;;;;;;8.68;6.05;;;17.10;99.90;;;;;;5048119;28;20021;-40
2021/07/30 06:32:45;;;;;;;10.88;6.15;;;17.20;99.90;;;;;;5047922;28;20464;-40
2021/07/30 06:35:14;;;;;;;8.13;6.07;;;17.20;99.90;;;;;;5047289;28;20072;-42
2021/07/30 06:37:40;;;;;;;11.32;6.68;;;17.30;99.90;;;;;;5047656;28;20096;-42
2021/07/30 06:40:06;;;;;;;9.07;6.20;;;17.30;99.90;;;;;;5048793;28;20082;-42
2021/07/30 06:42:33;;;;;;;7.88;5.65;;;17.40;99.90;;;;;;5047652;28;20021;-43
2021/07/30 06:45:02;;;;;;;7.43;5.68;;;17.50;99.90;;;;;;5047197;28;20039;-41
2021/07/30 06:47:28;;;;;;;6.38;5.45;;;17.60;99.90;;;;;;5048087;28;20152;-43
2021/07/30 06:49:53;;;;;;;8.63;5.22;;;17.70;99.90;;;;;;5048866;28;20116;-42
2021/07/30 06:52:19;;;;;;;6.28;5.00;;;17.80;99.90;;;;;;5048421;28;20130;-42
2021/07/30 06:54:50;;;;;;;8.30;5.55;;;17.80;99.90;;;;;;5048221;28;20238;-43
2021/07/30 06:57:15;;;;;;;7.82;5.18;;;17.90;99.90;;;;;;5051966;28;20075;-43
2021/07/30 06:59:40;;;;;;;9.48;5.50;;;18.00;99.90;;;;;;5051769;28;20024;-42
2021/07/30 07:02:06;;;;;;;8.77;5.28;;;18.10;99.90;;;;;;5052408;28;20033;-45
2021/07/30 07:04:32;;;;;;;7.45;5.43;;;18.20;99.90;;;;;;5052550;28;20049;-46
2021/07/30 07:06:58;;;;;;;8.40;5.05;;;18.30;99.90;;;;;;5050445;28;20453;-42
2021/07/30 07:09:24;;;;;;;10.18;5.60;;;18.40;99.90;;;;;;5051975;28;20025;-46
2021/07/30 07:11:50;;;;;;;8.18;5.32;;;18.40;99.90;;;;;;5052221;28;20021;-45
2021/07/30 07:14:16;;;;;;;9.40;5.63;;;18.50;99.90;;;;;;5052054;28;20087;-45
2021/07/30 07:16:42;;;;;;;8.25;6.32;;;18.60;99.90;;;;;;5051447;28;20017;-44
2021/07/30 07:19:11;;;;;;;6.53;4.78;;;18.70;99.90;;;;;;5052116;28;20029;-41
2021/07/30 07:21:38;;;;;;;9.38;5.97;;;18.80;99.90;;;;;;5051464;28;20021;-45
2021/07/30 07:24:04;;;;;;;13.50;6.30;;;18.90;99.90;;;;;;5051602;28;20021;-45
2021/07/30 07:26:30;;;;;;;7.82;5.75;;;18.90;99.90;;;;;;5051672;28;20017;-46
2021/07/30 07:28:55;;;;;;;9.73;5.60;;;19.00;99.90;;;;;;5051888;28;20033;-47
2021/07/30 07:31:21;;;;;;;7.90;5.13;;;19.00;99.80;;;;;;5051352;28;20025;-48
2021/07/30 07:33:47;;;;;;;7.47;4.88;;;19.10;99.90;;;;;;5051933;28;20041;-48
2021/07/30 07:36:12;;;;;;;6.38;4.85;;;19.10;99.80;;;;;;5051606;28;20024;-48
2021/07/30 07:38:38;;;;;;;5.68;4.47;;;19.20;99.70;;;;;;5051249;28;20287;-45
2021/07/30 07:41:03;;;;;;;8.82;5.00;;;19.20;99.70;;;;;;5051705;28;20448;-45
2021/07/30 07:43:29;;;;;;;7.07;5.13;;;19.20;99.70;;;;;;5051229;28;20484;-45
2021/07/30 07:45:58;;;;;;;10.02;5.05;;;19.30;99.80;;;;;;5031724;28;20059;-46
2021/07/30 07:48:23;;;;;;;5.95;4.20;;;19.30;99.70;;;;;;5045325;28;20020;-42
2021/07/30 07:50:49;;;;;;;7.32;4.90;;;19.40;99.60;;;;;;5051774;28;20025;-46
2021/07/30 07:53:15;;;;;;;8.00;4.85;;;19.50;99.60;;;;;;5050890;28;20078;-45
2021/07/30 07:55:42;;;;;;;9.13;4.90;;;19.60;99.00;;;;;;5051292;28;20037;-46
2021/07/30 07:58:09;;;;;;;9.75;5.07;;;19.70;98.90;;;;;;5050740;28;20100;-45
2021/07/30 08:00:35;;;;;;;6.18;4.38;;;19.70;98.70;;;;;;5051526;28;20028;-47
2021/07/30 08:03:01;;;;;;;7.18;4.57;;;19.80;98.80;;;;;;5051019;28;20021;-45
2021/07/30 08:05:28;;;;;;;8.60;4.10;;;19.90;98.80;;;;;;5051331;28;20025;-45
2021/07/30 08:07:54;;;;;;;7.10;4.97;;;20.00;98.60;;;;;;5051111;28;20373;-46
2021/07/30 08:10:20;;;;;;;9.65;4.45;;;20.10;98.40;;;;;;5050416;28;20021;-46
2021/07/30 08:12:46;;;;;;;9.05;4.53;;;20.10;98.20;;;;;;5065687;28;20116;-47
2021/07/30 08:15:13;;;;;;;8.98;5.20;;;20.20;97.70;;;;;;5051396;28;20106;-46
2021/07/30 08:17:40;;;;;;;7.32;4.43;;;20.30;97.40;;;;;;5050644;28;20127;-44
2021/07/30 08:20:13;;;;;;;8.13;4.53;;;20.40;97.20;;;;;;5050961;28;20548;-46
2021/07/30 08:22:40;;;;;;;8.02;4.35;;;20.40;97.20;;;;;;5050436;28;20061;-46
2021/07/30 08:25:06;;;;;;;7.32;4.05;;;20.50;97.30;;;;;;5049892;28;20476;-47
2021/07/30 08:27:32;;;;;;;5.13;3.72;;;20.50;97.20;;;;;;5051539;28;20032;-47
2021/07/30 08:29:58;;;;;;;5.90;4.15;;;20.70;97.30;;;;;;5051597;28;20021;-46
2021/07/30 08:32:23;;;;;;;6.35;4.03;;;20.80;97.10;;;;;;5050147;28;20025;-44
2021/07/30 08:34:49;;;;;;;5.45;3.83;;;20.90;96.70;;;;;;5050357;28;20052;-47
2021/07/30 08:37:14;;;;;;;8.85;3.78;;;21.00;96.90;;;;;;5050361;28;20542;-44
2021/07/30 08:39:40;;;;;;;6.95;3.75;;;21.00;96.70;;;;;;5050527;28;20029;-45
2021/07/30 08:42:09;;;;;;;6.32;3.45;;;21.10;96.70;;;;;;5050626;28;20036;-46
2021/07/30 08:44:36;;;;;;;3.72;2.80;;;21.10;96.50;;;;;;5041172;28;20025;-46
2021/07/30 08:47:07;;;;;;;4.63;2.90;;;21.10;96.60;;;;;;5049604;28;20032;-46
2021/07/30 08:49:35;;;;;;;7.90;3.03;;;21.10;96.60;;;;;;5050719;28;20055;-44
2021/07/30 08:52:16;;;;;;;4.93;2.53;;;21.10;96.60;;;;;;5051393;28;20072;-46
2021/07/30 08:54:43;;;;;;;4.55;2.85;;;21.20;96.60;;;;;;5049397;28;20371;-46
2021/07/30 08:57:12;;;;;;;5.93;2.70;;;21.30;96.60;;;;;;5049666;28;20468;-46
2021/07/30 08:59:40;;;;;;;4.72;3.03;;;21.30;96.50;;;;;;5049834;28;20132;-46
2021/07/30 09:02:07;;;;;;;7.05;3.30;;;21.40;96.30;;;;;;5051062;28;20025;-43
2021/07/30 09:04:33;;;;;;;6.30;3.10;;;21.40;96.00;;;;;;5050334;28;20025;-46
2021/07/30 09:07:04;;;;;;;5.15;3.00;;;21.50;95.90;;;;;;5049657;28;20029;-46
2021/07/30 09:09:33;;;;;;;4.38;2.70;;;21.60;95.90;;;;;;5048645;28;20079;-45
2021/07/30 09:12:00;;;;;;;6.85;3.20;;;21.70;95.60;;;;;;5046461;28;20024;-45
2021/07/30 09:14:46;;;;;;;4.75;2.70;;;21.80;95.10;;;;;;5047997;28;20444;-43
2021/07/30 09:17:13;;;;;;;5.53;3.00;;;21.90;95.00;;;;;;5049076;28;20392;-47
2021/07/30 09:20:01;;;;;;;6.07;3.25;;;21.90;95.00;;;;;;5047958;28;20024;-45
2021/07/30 09:22:27;;;;;;;4.25;2.40;;;22.10;95.00;;;;;;5046605;28;20009;-46
2021/07/30 09:24:58;;;;;;;4.43;2.50;;;22.20;95.00;;;;;;5049849;28;20040;-45
2021/07/30 09:27:23;;;;;;;6.53;2.95;;;22.30;94.90;;;;;;5049685;28;20013;-44
2021/07/30 09:29:49;;;;;;;5.30;3.17;;;22.30;94.50;;;;;;5050584;28;20048;-46
2021/07/30 09:32:17;;;;;;;6.00;3.42;;;22.40;94.20;;;;;;5049926;28;20043;-45
2021/07/30 09:34:49;;;;;;;5.20;2.80;;;22.40;93.60;;;;;;5048806;28;20063;-45
2021/07/30 09:37:21;;;;;;;;;;;22.40;93.80;;;;;;5049551;28;20020;-43
2021/07/30 09:39:50;;;;;;;4.00;2.60;;;22.40;93.90;;;;;;5030562;28;20387;-46
2021/07/30 09:42:20;;;;;;;5.70;2.90;;;22.50;93.90;;;;;;5043760;28;20396;-43
2021/07/30 09:44:52;;;;;;;5.45;3.40;;;22.50;93.50;;;;;;5049699;28;20095;-46
2021/07/30 09:47:29;;;;;;;9.38;4.25;;;22.70;93.10;;;;;;5048893;28;20070;-47
2021/07/30 09:49:57;;;;;;;4.05;3.03;;;22.80;92.80;;;;;;5050003;28;20029;-46
2021/07/30 09:52:24;;;;;;;4.35;3.17;;;23.00;92.60;;;;;;5047317;28;20221;-46
2021/07/30 09:54:56;;;;;;;3.65;2.97;;;23.20;92.50;;;;;;5049459;28;20045;-46
2021/07/30 09:57:26;;;;;;;4.60;2.40;;;23.30;92.60;;;;;;5049350;28;20021;-44
2021/07/30 09:59:57;;;;;;;2.97;2.47;;;23.40;92.70;;;;;;5049540;28;20017;-45
2021/07/30 10:02:28;;;;;;;6.10;3.75;;;23.50;92.10;;;;;;5048112;28;20462;-45
2021/07/30 10:04:54;;;;;;;5.68;3.15;;;23.70;92.00;;;;;;5050095;28;20071;-46
2021/07/30 10:07:25;;;;;;;4.82;2.70;;;23.70;91.60;;;;;;5048678;28;20052;-47
2021/07/30 10:10:03;;;;;;;3.67;2.90;;;23.80;91.40;;;;;;5047863;28;20028;-46
2021/07/30 10:12:31;;;;;;;4.22;2.60;;;23.80;91.10;;;;;;5048465;28;20056;-46
2021/07/30 10:15:01;;;;;;;5.55;2.85;;;23.90;91.20;;;;;;5048947;28;20124;-45
2021/07/30 10:17:34;;;;;;;4.13;2.22;;;23.90;91.20;;;;;;5048011;28;20495;-47
2021/07/30 10:20:02;;;;;;;3.67;2.60;;;24.10;91.30;;;;;;5049355;28;20056;-47
2021/07/30 10:22:47;;;;;;;4.63;2.80;;;24.20;91.30;;;;;;5048109;28;20104;-46
2021/07/30 10:25:27;;;;;;;4.63;2.97;;;24.30;90.90;;;;;;5040060;28;20021;-45
2021/07/30 10:27:57;;;;;;;3.55;2.53;;;24.30;90.70;;;;;;5049173;28;20025;-46
2021/07/30 10:30:23;;;;;;;4.38;2.67;;;24.40;90.90;;;;;;5047775;28;20472;-43
2021/07/30 10:32:56;;;;;;;5.10;2.72;;;24.40;90.80;;;;;;5048767;28;20067;-45
2021/07/30 10:35:28;;;;;;;5.28;2.80;;;24.40;90.10;;;;;;5037931;28;20059;-46
2021/07/30 10:38:18;;;;;;;2.60;2.28;;;24.30;90.20;;;;;;5047771;28;20028;-47
2021/07/30 10:41:09;;;;;;;3.70;2.20;;;24.30;90.20;;;;;;5039633;28;20041;-46
2021/07/30 10:43:50;;;;;;;4.35;2.42;;;24.20;90.30;;;;;;5048095;28;20032;-44
2021/07/30 10:46:16;;;;;;;3.60;2.42;;;24.30;90.30;;;;;;5048602;28;20178;-45
2021/07/30 10:48:42;;;;;;;5.15;3.38;;;24.30;90.50;;;;;;5048725;28;20360;-45
2021/07/30 10:51:20;;;;;;;5.55;2.88;;;24.30;90.40;;;;;;5048781;28;20032;-48
2021/07/30 10:53:47;;;;;;;3.50;2.50;;;24.20;89.80;;;;;;5048468;28;20083;-46
2021/07/30 10:56:21;;;;;;;3.97;2.28;;;24.20;90.10;;;;;;5048566;28;20025;-46
2021/07/30 10:58:50;;;;;;;3.55;2.50;;;24.20;90.40;;;;;;5047299;28;20369;-47
2021/07/30 11:01:19;;;;;;;2.80;2.10;;;24.30;90.50;;;;;;5048853;28;20025;-47
2021/07/30 11:03:53;;;;;;;3.00;2.10;;;24.40;90.60;;;;;;5048239;28;20052;-47
2021/07/30 11:06:53;;;;;;;3.42;2.38;;;24.50;90.60;;;;;;5036858;28;20558;-47
2021/07/30 11:09:24;;;;;;;3.15;2.50;;;24.60;89.20;;;;;;5048291;28;20017;-47
2021/07/30 11:11:57;;;;;;;4.28;2.47;;;24.70;88.50;;;;;;5048867;28;20104;-45
2021/07/30 11:14:23;;;;;;;7.85;2.42;;;24.80;88.50;;;;;;5047699;28;20036;-45
2021/07/30 11:16:58;;;;;;;2.70;2.30;;;24.90;88.70;;;;;;5049520;28;20025;-47
2021/07/30 11:19:33;;;;;;;3.63;2.58;;;25.00;88.70;;;;;;5047415;28;20021;-44
2021/07/30 11:22:01;;;;;;;3.40;2.40;;;25.00;87.30;;;;;;5049107;28;20028;-46
2021/07/30 11:24:27;;;;;;;3.92;2.30;;;25.10;87.60;;;;;;5047668;28;20029;-42
2021/07/30 11:26:55;;;;;;;3.38;2.80;;;25.10;88.00;;;;;;5048457;28;20014;-45
2021/07/30 11:29:22;;;;;;;2.75;2.30;;;25.20;87.20;;;;;;5047545;28;20496;-45
2021/07/30 11:32:04;;;;;;;4.25;2.40;;;25.20;87.10;;;;;;5048440;28;20412;-47
2021/07/30 11:34:35;;;;;;;2.30;2.10;;;25.30;86.70;;;;;;5046994;28;20443;-46
2021/07/30 11:37:03;;;;;;;2.45;2.20;;;25.30;87.20;;;;;;5048493;28;20025;-44
2021/07/30 11:39:33;;;;;;;4.05;2.53;;;25.40;87.50;;;;;;5047825;28;20029;-46
2021/07/30 11:41:59;;;;;;;3.97;2.50;;;25.40;85.90;;;;;;5048835;28;20025;-46
2021/07/30 11:44:25;;;;;;;4.97;2.72;;;25.50;85.40;;;;;;5051472;28;20037;-47
2021/07/30 11:46:53;;;;;;;2.70;2.47;;;25.50;84.40;;;;;;5052085;28;20500;-47
2021/07/30 11:49:30;;;;;;;3.20;2.50;;;25.60;84.70;;;;;;5051332;28;20031;-46
2021/07/30 11:51:56;;;;;;;4.22;2.55;;;25.60;85.00;;;;;;5051781;28;20107;-47
2021/07/30 11:54:24;;;;;;;4.38;2.53;;;25.60;84.70;;;;;;5050644;28;20308;-46
2021/07/30 11:56:53;;;;;;;2.72;2.53;;;25.60;83.30;;;;;;5052043;28;20108;-44
2021/07/30 11:59:20;;;;;;;4.53;2.22;;;25.60;83.50;;;;;;5051622;28;20021;-43
2021/07/30 12:02:05;;;;;;;4.60;3.72;;;25.60;82.50;;;;;;5050259;28;20029;-43
2021/07/30 12:04:32;;;;;;;4.57;3.20;;;25.60;82.10;;;;;;5051420;28;20029;-46
2021/07/30 12:07:06;;;;;;;3.08;2.65;;;25.60;82.60;;;;;;5052007;28;20498;-45
2021/07/30 12:09:36;;;;;;;2.75;2.55;;;25.70;82.60;;;;;;5050366;28;20029;-43
2021/07/30 12:12:03;;;;;;;3.33;2.72;;;25.70;82.70;;;;;;5051369;28;20036;-45
2021/07/30 12:14:32;;;;;;;2.70;2.50;;;25.70;82.70;;;;;;5050988;28;20040;-45
2021/07/30 12:16:58;;;;;;;3.78;2.47;;;25.70;82.90;;;;;;5051551;28;20021;-43
2021/07/30 12:19:32;;;;;;;3.50;2.47;;;25.80;83.20;;;;;;5049940;28;20024;-46
2021/07/30 12:22:00;;;;;;;2.95;2.50;;;25.90;82.40;;;;;;5051458;28;20021;-44
2021/07/30 12:24:29;;;;;;;2.92;2.60;;;25.90;82.60;;;;;;5050317;28;20605;-43
2021/07/30 12:26:55;;;;;;;3.03;2.70;;;26.00;82.30;;;;;;5051523;28;20071;-46
2021/07/30 12:29:50;;;;;;;2.75;2.55;;;26.00;82.50;;;;;;5050426;28;20403;-46
2021/07/30 12:32:16;;;;;;;4.65;2.33;;;25.90;80.30;;;;;;5035229;28;20032;-43
2021/07/30 12:35:11;;;;;;;4.32;2.60;;;25.80;80.20;;;;;;5050260;28;20045;-44
2021/07/30 12:37:38;;;;;;;3.25;2.38;;;25.70;80.60;;;;;;5049671;28;20013;-43
2021/07/30 12:40:07;;;;;;;4.40;2.85;;;25.60;81.20;;;;;;5051416;28;20044;-44
2021/07/30 12:42:38;;;;;;;4.60;2.65;;;25.50;83.10;;;;;;5050004;28;20057;-43
2021/07/30 12:45:10;;;;;;;5.50;2.65;;;25.20;84.10;;;;;;5050695;28;20021;-44
2021/07/30 12:47:54;;;;;;;4.03;3.00;;;25.00;85.10;;;;;;5050337;28;20958;-44
2021/07/30 12:50:34;;;;;;;4.78;3.30;;;24.80;88.20;;;;;;5049791;28;20021;-43